Temp: 21.3°C   Baro: 1012.1mb
  Wind: 0.9mph   Dir: WNW (290°)
  Rain: 0.0mm (0.0mm/hr)
  Solar: 466W/m2  Hum: 61%
 
Bath Spa Weather Station Historical Data
Daily Summary for July 22, 2021 Units:  English    Metric   Both
Daily Weekly Monthly Yearly Custom
  High: Low: Average:
Temperature: 87.2 °F 64.7 °F 75.7 °F
Dew Point: 68.6 °F 61.7 °F 65 °F
Humidity: 88% 48% 69%
Wind Speed: 6.4mph 0mph 1.8mph
Wind Gust: 13mph - -
Wind- - SE
Pressure: 30.23 in 30.11 in -
Precipitation: 0.00 in    
Historical Graphs
 
 
Tabular Data for July 22, 2021
Time Temperature Dew Point Pressure Wind Wind Speed Wind Gust Humidity Rainfall Rate (Hourly) solar
00:04 72.7 °F 65.5 °F 30.20 in NNE 1.2 mph 4 mph 76% 0.00 in 0 W/m2
00:09 72.8 °F 65.6 °F 30.20 in NNE 1.7 mph 4 mph 76% 0.00 in 0 W/m2
00:14 72.7 °F 65.5 °F 30.21 in NNE 1.7 mph 5 mph 76% 0.00 in 0 W/m2
00:19 72.7 °F 65.5 °F 30.21 in NNE 2.2 mph 5 mph 76% 0.00 in 0 W/m2
00:24 72.8 °F 65.6 °F 30.21 in ENE 2.5 mph 8 mph 76% 0.00 in 0 W/m2
00:29 72.8 °F 65.6 °F 30.21 in ENE 2.8 mph 7 mph 76% 0.00 in 0 W/m2
00:34 72.9 °F 65.7 °F 30.21 in ENE 2.4 mph 7 mph 76% 0.00 in 0 W/m2
00:39 72.7 °F 65.5 °F 30.21 in ENE 2.9 mph 7 mph 76% 0.00 in 0 W/m2
00:44 72.6 °F 65.4 °F 30.21 in ENE 2.1 mph 5 mph 76% 0.00 in 0 W/m2
00:49 72.4 °F 65.2 °F 30.21 in ENE 2.7 mph 9 mph 76% 0.00 in 0 W/m2
00:54 72.2 °F 65 °F 30.21 in ENE 2 mph 5 mph 76% 0.00 in 0 W/m2
00:59 72.1 °F 65.3 °F 30.21 in ENE 0.6 mph 4 mph 76.6% 0.00 in 0 W/m2
01:04 72 °F 65.3 °F 30.21 in ENE 2.2 mph 4 mph 77% 0.00 in 0 W/m2
01:09 71.7 °F 65 °F 30.21 in ENE 1.6 mph 7 mph 77% 0.00 in 0 W/m2
01:14 71.3 °F 64.7 °F 30.21 in ENE 2.7 mph 5 mph 77% 0.00 in 0 W/m2
01:19 71.1 °F 64.5 °F 30.21 in ENE 2.5 mph 5 mph 77% 0.00 in 0 W/m2
01:24 71.1 °F 64.4 °F 30.21 in ENE 2 mph 5 mph 77% 0.00 in 0 W/m2
01:29 71 °F 64.3 °F 30.21 in ENE 3.6 mph 7 mph 77% 0.00 in 0 W/m2
01:34 71.1 °F 64.4 °F 30.21 in East 4.8 mph 10 mph 77% 0.00 in 0 W/m2
01:39 70.9 °F 64.2 °F 30.21 in East 4 mph 8 mph 77% 0.00 in 0 W/m2
01:44 70.9 °F 64.2 °F 30.21 in East 4.4 mph 9 mph 77% 0.00 in 0 W/m2
01:49 70.9 °F 64.2 °F 30.20 in East 2.2 mph 8 mph 77% 0.00 in 0 W/m2
01:54 70.9 °F 64.2 °F 30.21 in East 3.7 mph 8 mph 77% 0.00 in 0 W/m2
01:59 70.8 °F 64.4 °F 30.21 in East 4 mph 10 mph 77.6% 0.00 in 0 W/m2
02:04 70.5 °F 64.2 °F 30.20 in East 2.9 mph 8 mph 78% 0.00 in 0 W/m2
02:09 70.3 °F 64 °F 30.20 in East 2.9 mph 10 mph 78% 0.00 in 0 W/m2
02:14 70.2 °F 64 °F 30.20 in East 2.1 mph 7 mph 78.4% 0.00 in 0 W/m2
02:19 70.2 °F 64.2 °F 30.20 in East 4 mph 8 mph 79% 0.00 in 0 W/m2
02:24 70 °F 64 °F 30.20 in ESE 1.7 mph 7 mph 79% 0.00 in 0 W/m2
02:29 70 °F 64 °F 30.20 in ESE 1 mph 7 mph 79% 0.00 in 0 W/m2
02:34 70 °F 64.1 °F 30.20 in Calm   4 mph 79.4% 0.00 in 0 W/m2
02:39 69.8 °F 64.2 °F 30.20 in ESE 1 mph 5 mph 80% 0.00 in 0 W/m2
02:44 69.6 °F 64 °F 30.20 in ESE 1.6 mph 5 mph 80% 0.00 in 0 W/m2
02:49 69.5 °F 64 °F 30.20 in ESE 0.2 mph 5 mph 80% 0.00 in 0 W/m2
02:54 69.4 °F 63.9 °F 30.21 in ESE 1.4 mph 4 mph 80% 0.00 in 0 W/m2
02:59 69.3 °F 63.7 °F 30.21 in Calm   4 mph 80% 0.00 in 0 W/m2
03:04 68.9 °F 63.7 °F 30.21 in ESE 0.8 mph 2 mph 81% 0.00 in 0 W/m2
03:09 68.5 °F 63.3 °F 30.21 in Calm     81% 0.00 in 0 W/m2
03:14 68.4 °F 63.4 °F 30.21 in Calm     81.6% 0.00 in 0 W/m2
03:19 68.3 °F 63.4 °F 30.20 in Calm     82% 0.00 in 0 W/m2
03:24 68.2 °F 63.3 °F 30.21 in Calm     82% 0.00 in 0 W/m2
03:29 67.9 °F 63.1 °F 30.21 in Calm     82% 0.00 in 0 W/m2
03:34 67.8 °F 63 °F 30.21 in Calm     82% 0.00 in 0 W/m2
03:39 67.6 °F 63.1 °F 30.21 in Calm     83% 0.00 in 0 W/m2
03:44 67.6 °F 63.1 °F 30.21 in Calm     83% 0.00 in 0 W/m2
03:49 67.5 °F 63 °F 30.21 in Calm   1 mph 83% 0.00 in 0 W/m2
03:54 67.3 °F 62.8 °F 30.21 in ESE 1.2 mph 4 mph 83% 0.00 in 0 W/m2
03:59 67.2 °F 63 °F 30.21 in ESE 0.4 mph 3 mph 84% 0.00 in 0 W/m2
04:04 67 °F 62.9 °F 30.21 in ESE 0.2 mph 3 mph 84% 0.00 in 0 W/m2
04:09 66.9 °F 62.8 °F 30.21 in ESE 1.6 mph 4 mph 84.2% 0.00 in 0 W/m2
04:14 66.7 °F 63 °F 30.21 in ESE 0.9 mph 4 mph 85% 0.00 in 0 W/m2
04:19 66.7 °F 62.9 °F 30.21 in ESE 0.8 mph 3 mph 85% 0.00 in 0 W/m2
04:24 66.6 °F 62.8 °F 30.21 in ESE 0.2 mph 3 mph 85% 0.00 in 0 W/m2
04:29 66.5 °F 62.7 °F 30.21 in ESE 0.9 mph 4 mph 85% 0.00 in 0 W/m2
04:34 66.4 °F 62.6 °F 30.21 in ESE 2.4 mph 4 mph 85% 0.00 in 0 W/m2
04:39 66.4 °F 62.6 °F 30.21 in ESE 0.2 mph 3 mph 85% 0.00 in 0 W/m2
04:44 66.4 °F 63 °F 30.21 in ESE 0.8 mph 3 mph 86% 0.00 in 0 W/m2
04:49 66.2 °F 62.8 °F 30.21 in ESE 0.4 mph 3 mph 86% 0.00 in 0 W/m2
04:54 66 °F 62.6 °F 30.21 in ESE 0.6 mph 3 mph 86% 0.00 in 0 W/m2
04:59 66 °F 62.6 °F 30.21 in Calm     86% 0.00 in 0 W/m2
05:04 65.9 °F 62.6 °F 30.21 in Calm   2 mph 86% 0.00 in 0 W/m2
05:09 65.8 °F 62.4 °F 30.21 in ESE 0.4 mph 2 mph 86% 0.00 in 0 W/m2
05:14 65.8 °F 62.3 °F 30.21 in ESE 0.6 mph 3 mph 86% 0.00 in 0 W/m2
05:19 65.6 °F 62.1 °F 30.21 in ESE 1 mph 3 mph 86% 0.00 in 0 W/m2
05:24 65.5 °F 62.3 °F 30.21 in ESE 0.4 mph 2 mph 86.6% 0.00 in 0 W/m2
05:29 65.3 °F 62.2 °F 30.21 in Calm   2 mph 86.8% 0.00 in 5 W/m2
05:34 65.3 °F 62.2 °F 30.21 in ESE 0.6 mph 3 mph 87% 0.00 in 7 W/m2
05:39 65.2 °F 62.2 °F 30.21 in Calm   2 mph 87% 0.00 in 11 W/m2
05:44 65 °F 62 °F 30.22 in Calm   3 mph 87% 0.00 in 14 W/m2
05:49 64.9 °F 61.9 °F 30.22 in ESE 1.6 mph 4 mph 87% 0.00 in 18 W/m2
05:54 64.8 °F 61.7 °F 30.22 in ESE 1 mph 3 mph 87% 0.00 in 18 W/m2
05:59 64.8 °F 61.7 °F 30.22 in ESE 0.6 mph 3 mph 87% 0.00 in 21 W/m2
06:04 64.7 °F 62 °F 30.22 in ESE 0.8 mph 3 mph 88% 0.00 in 25 W/m2
06:09 64.8 °F 61.9 °F 30.22 in Calm   1 mph 87.6% 0.00 in 28 W/m2
06:14 64.8 °F 62.1 °F 30.22 in Calm     88% 0.00 in 30 W/m2
06:19 64.8 °F 62.1 °F 30.22 in Calm     88% 0.00 in 33 W/m2
06:24 64.9 °F 62.2 °F 30.22 in Calm     88% 0.00 in 37 W/m2
06:29 64.9 °F 62.2 °F 30.22 in ESE 0.4 mph 2 mph 88% 0.00 in 39 W/m2
06:34 64.9 °F 62.2 °F 30.22 in Calm   1 mph 88% 0.00 in 42 W/m2
06:39 65.1 °F 62.4 °F 30.22 in Calm     88% 0.00 in 46 W/m2
06:44 65.1 °F 62.2 °F 30.22 in Calm     87.2% 0.00 in 49 W/m2
06:49 65.1 °F 62.1 °F 30.22 in Calm     87% 0.00 in 54 W/m2
06:53 65.1 °F 62.1 °F 30.22 in Calm     87% 0.00 in 62 W/m2
06:59 65.3 °F 62.2 °F 30.22 in Calm     87% 0.00 in 69 W/m2
07:04 65.5 °F 62.4 °F 30.22 in Calm     87% 0.00 in 81 W/m2
07:09 65.7 °F 62.6 °F 30.22 in Calm     87% 0.00 in 93 W/m2
07:14 65.8 °F 62.8 °F 30.23 in Calm     87% 0.00 in 105 W/m2
07:19 66.1 °F 62.8 °F 30.23 in Calm     86.4% 0.00 in 120 W/m2
07:24 66.4 °F 63 °F 30.23 in Calm     86% 0.00 in 134 W/m2
07:29 66.6 °F 63 °F 30.22 in ESE 0.2 mph 4 mph 85.4% 0.00 in 146 W/m2
07:34 66.9 °F 63.2 °F 30.22 in ESE 1.5 mph 4 mph 85% 0.00 in 158 W/m2
07:39 67.4 °F 63.3 °F 30.22 in ESE 1.2 mph 4 mph 84.4% 0.00 in 172 W/m2
07:44 67.5 °F 63.2 °F 30.22 in ESE 0.9 mph 5 mph 83.6% 0.00 in 186 W/m2
07:49 67.9 °F 63.3 °F 30.22 in ESE 0.6 mph 4 mph 82.8% 0.00 in 200 W/m2
07:54 68.3 °F 63.3 °F 30.22 in ESE 2.2 mph 7 mph 82% 0.00 in 213 W/m2
07:59 68.6 °F 63.5 °F 30.22 in ESE 3 mph 5 mph 81.3% 0.00 in 227 W/m2
08:04 68.9 °F 63.6 °F 30.22 in ESE 1.8 mph 7 mph 80.6% 0.00 in 241 W/m2
08:09 69.2 °F 63.5 °F 30.22 in ESE 3 mph 5 mph 79.6% 0.00 in 255 W/m2
08:14 69.8 °F 63.8 °F 30.22 in ESE 1.8 mph 5 mph 78.8% 0.00 in 265 W/m2
08:19 70.2 °F 63.7 °F 30.22 in ESE 1 mph 5 mph 77.6% 0.00 in 281 W/m2
08:24 70.7 °F 64 °F 30.22 in ESE 0.2 mph 2 mph 77% 0.00 in 299 W/m2
08:29 71.1 °F 64.3 °F 30.22 in ESE 1 mph 4 mph 76.6% 0.00 in 313 W/m2
08:34 71.3 °F 64.3 °F 30.22 in ESE 0.4 mph 2 mph 76% 0.00 in 330 W/m2
08:39 71.4 °F 64.2 °F 30.22 in ESE 0.2 mph 3 mph 75.6% 0.00 in 343 W/m2
08:44 71.3 °F 63.9 °F 30.22 in ESE 0.4 mph 4 mph 75% 0.00 in 357 W/m2
08:49 71.1 °F 63.9 °F 30.22 in Calm   5 mph 75.6% 0.00 in 373 W/m2
08:54 71.8 °F 64.6 °F 30.22 in Calm   3 mph 75.6% 0.00 in 387 W/m2
08:59 72.5 °F 64.6 °F 30.22 in Calm   3 mph 74% 0.00 in 401 W/m2
09:03 73.1 °F 64.9 °F 30.22 in ESE 2 mph 4 mph 73.3% 0.00 in 413 W/m2
09:09 73.8 °F 65.3 °F 30.22 in ESE 0.8 mph 4 mph 72.6% 0.00 in 427 W/m2
09:14 74 °F 65.1 °F 30.22 in Calm   4 mph 71.8% 0.00 in 441 W/m2
09:19 74.4 °F 65.6 °F 30.22 in Calm   4 mph 72% 0.00 in 454 W/m2
09:24 74.2 °F 65.2 °F 30.22 in ESE 1.8 mph 7 mph 71.4% 0.00 in 464 W/m2
09:29 74.5 °F 65.6 °F 30.22 in ESE 3.6 mph 5 mph 71.8% 0.00 in 476 W/m2
09:34 74.8 °F 65.8 °F 30.22 in ESE 1.4 mph 5 mph 71.2% 0.00 in 489 W/m2
09:39 74.8 °F 65.7 °F 30.22 in Calm   1 mph 71.2% 0.00 in 499 W/m2
09:44 75.1 °F 66.1 °F 30.22 in Calm   1 mph 71.4% 0.00 in 512 W/m2
09:49 76.3 °F 66.2 °F 30.22 in Calm   1 mph 69% 0.00 in 524 W/m2
09:54 76.3 °F 66.1 °F 30.22 in ESE 1.6 mph 5 mph 68.8% 0.00 in 533 W/m2
09:59 75.8 °F 65.6 °F 30.22 in ESE 1.3 mph 4 mph 68.6% 0.00 in 541 W/m2
10:04 76.3 °F 66.2 °F 30.22 in ESE 1.8 mph 4 mph 69% 0.00 in 557 W/m2
10:09 77 °F 66.6 °F 30.22 in ESE 2.5 mph 5 mph 68.4% 0.00 in 570 W/m2
10:14 78.1 °F 66.8 °F 30.22 in ESE 1.7 mph 5 mph 66.6% 0.00 in 578 W/m2
10:19 78.4 °F 67 °F 30.22 in ESE 1.2 mph 5 mph 66.2% 0.00 in 591 W/m2
10:24 79.3 °F 67.5 °F 30.22 in ESE 2 mph 7 mph 65.3% 0.00 in 598 W/m2
10:29 79.2 °F 67.2 °F 30.22 in ESE 2.2 mph 4 mph 65% 0.00 in 608 W/m2
10:34 79.4 °F 67.4 °F 30.22 in ESE 2.9 mph 5 mph 64.8% 0.00 in 619 W/m2
10:39 78 °F 66.4 °F 30.22 in ESE 3.8 mph 8 mph 65.6% 0.00 in 628 W/m2
10:44 77.1 °F 66.6 °F 30.22 in ESE 2.5 mph 9 mph 68% 0.00 in 636 W/m2
10:49 77.9 °F 67 °F 30.22 in ESE 2.9 mph 8 mph 67.2% 0.00 in 645 W/m2
10:54 78.3 °F 67.1 °F 30.22 in ESE 1 mph 7 mph 66.6% 0.00 in 657 W/m2
10:59 79.9 °F 67.6 °F 30.21 in Calm   7 mph 64.4% 0.00 in 664 W/m2
11:04 80.1 °F 67.4 °F 30.21 in ESE 1.7 mph 8 mph 63.6% 0.00 in 670 W/m2
11:09 78.4 °F 66.7 °F 30.21 in ESE 1.3 mph 8 mph 65.6% 0.00 in 679 W/m2
11:14 79.3 °F 67.3 °F 30.21 in ESE 2.6 mph 7 mph 64.6% 0.00 in 686 W/m2
11:19 78.9 °F 66.7 °F 30.21 in ESE 0.8 mph 5 mph 64.4% 0.00 in 691 W/m2
11:24 79.3 °F 66.8 °F 30.21 in SE 3.2 mph 7 mph 63.5% 0.00 in 696 W/m2
11:29 78.9 °F 66.5 °F 30.21 in SSE 2.2 mph 8 mph 64% 0.00 in 707 W/m2
11:34 79.7 °F 66.8 °F 30.21 in SSE 1.4 mph 7 mph 63% 0.00 in 707 W/m2
11:39 79.4 °F 66.8 °F 30.21 in SSE 1.7 mph 7 mph 63.4% 0.00 in 724 W/m2
11:44 80.6 °F 67.5 °F 30.21 in SE 1.8 mph 9 mph 62.6% 0.00 in 729 W/m2
11:49 80.3 °F 67 °F 30.21 in SE 1.7 mph 5 mph 62.2% 0.00 in 735 W/m2
11:54 80.2 °F 67 °F 30.21 in SE 1.6 mph 7 mph 62.2% 0.00 in 733 W/m2
11:59 81 °F 67.5 °F 30.21 in SE 1.7 mph 7 mph 61.8% 0.00 in 738 W/m2
12:04 81 °F 67.2 °F 30.21 in SSE 2.9 mph 9 mph 61.2% 0.00 in 768 W/m2
12:09 81.2 °F 67.3 °F 30.21 in SE 2.4 mph 6 mph 61% 0.00 in 791 W/m2
12:14 81.8 °F 67.5 °F 30.21 in SE 1.3 mph 8 mph 60.2% 0.00 in 780 W/m2
12:19 82.3 °F 67.6 °F 30.20 in SE 5.2 mph 12 mph 59.4% 0.00 in 838 W/m2
12:24 82.4 °F 67.6 °F 30.21 in ESE 3.7 mph 11 mph 59.2% 0.00 in 849 W/m2
12:29 82.4 °F 67.3 °F 30.20 in SSE 5.3 mph 11 mph 58.6% 0.00 in 846 W/m2
12:34 81.1 °F 66.6 °F 30.20 in SSE 5.8 mph 10 mph 59.8% 0.00 in 854 W/m2
12:39 81.2 °F 66.7 °F 30.20 in SSE 5.2 mph 9 mph 59.8% 0.00 in 879 W/m2
12:44 81.2 °F 66.6 °F 30.20 in SSE 2.8 mph 9 mph 59.4% 0.00 in 882 W/m2
12:49 83 °F 67.9 °F 30.20 in SE 5.2 mph 9 mph 58.8% 0.00 in 853 W/m2
12:54 83.6 °F 67.5 °F 30.20 in SE 3.6 mph 8 mph 56.8% 0.00 in 842 W/m2
12:59 83.7 °F 67.1 °F 30.19 in ESE 3.2 mph 8 mph 56% 0.00 in 830 W/m2
13:04 83.2 °F 67.1 °F 30.19 in SE 4.3 mph 9 mph 56.8% 0.00 in 842 W/m2
13:09 83.8 °F 67.9 °F 30.19 in ESE 3 mph 9 mph 57.2% 0.00 in 819 W/m2
13:14 85.8 °F 68.6 °F 30.19 in ESE 3.5 mph 8 mph 55.2% 0.00 in 819 W/m2
13:19 85.5 °F 68 °F 30.19 in SE 3.6 mph 12 mph 54.4% 0.00 in 821 W/m2
13:24 83.4 °F 67.2 °F 30.19 in SSE 5.3 mph 9 mph 56.6% 0.00 in 831 W/m2
13:29 82.8 °F 66.2 °F 30.19 in SSE 2.6 mph 7 mph 55.8% 0.00 in 849 W/m2
13:34 83.7 °F 66.2 °F 30.18 in SSE 6.1 mph 10 mph 54.2% 0.00 in 867 W/m2
13:39 83.2 °F 66.4 °F 30.19 in SSE 4.5 mph 10 mph 55.5% 0.00 in 877 W/m2
13:44 83 °F 66.4 °F 30.18 in SSE 4.1 mph 9 mph 55.8% 0.00 in 860 W/m2
13:49 82.6 °F 66.2 °F 30.18 in SSE 2.2 mph 9 mph 56% 0.00 in 846 W/m2
13:54 83.4 °F 67.1 °F 30.18 in SSE 2.8 mph 6 mph 56.4% 0.00 in 846 W/m2
13:59 83.7 °F 66 °F 30.18 in SSE 6.4 mph 10 mph 53.8% 0.00 in 838 W/m2
14:04 82.9 °F 65.2 °F 30.18 in SSE 4.5 mph 11 mph 53.6% 0.00 in 837 W/m2
14:09 83 °F 65.5 °F 30.17 in SSE 5.2 mph 11 mph 54% 0.00 in 826 W/m2
14:14 82.5 °F 65.4 °F 30.17 in SSE 4 mph 11 mph 54.8% 0.00 in 805 W/m2
14:19 83.3 °F 64.9 °F 30.17 in SSE 2.1 mph 9 mph 52.4% 0.00 in 255 W/m2
14:24 84.2 °F 65.9 °F 30.17 in SSE 1.4 mph 7 mph 52.8% 0.00 in 809 W/m2
14:29 84.2 °F 65.9 °F 30.17 in SSE 4.8 mph 13 mph 52.8% 0.00 in 824 W/m2
14:34 83.9 °F 65.4 °F 30.17 in South 2 mph 13 mph 52.5% 0.00 in 823 W/m2
14:39 83.7 °F 65.4 °F 30.17 in South 4.4 mph 8 mph 52.8% 0.00 in 814 W/m2
14:44 83.9 °F 65.8 °F 30.17 in South 6 mph 9 mph 53% 0.00 in 816 W/m2
14:49 84.5 °F 66 °F 30.17 in South 4.7 mph 9 mph 52.4% 0.00 in 810 W/m2
14:54 83.8 °F 65.3 °F 30.16 in South 2.5 mph 6 mph 52.4% 0.00 in 847 W/m2
14:59 85 °F 66.5 °F 30.16 in SE 4.8 mph 8 mph 52.4% 0.00 in 840 W/m2
15:04 87.2 °F 66.9 °F 30.16 in ESE 2.1 mph 8 mph 49.6% 0.00 in 828 W/m2
15:09 86.4 °F 66 °F 30.16 in ESE 1 mph 6 mph 49.4% 0.00 in 239 W/m2
15:14 85.5 °F 66 °F 30.16 in Calm   6 mph 50.8% 0.00 in 772 W/m2
15:19 85 °F 66.2 °F 30.16 in Calm   1 mph 51.8% 0.00 in 758 W/m2
15:24 85.1 °F 66.1 °F 30.16 in SE 1.8 mph 9 mph 51.6% 0.00 in 185 W/m2
15:29 83.6 °F 65.1 °F 30.16 in SSE 2.7 mph 8 mph 52.3% 0.00 in 181 W/m2
15:34 82.8 °F 65 °F 30.16 in Calm   6 mph 53.4% 0.00 in 197 W/m2
15:39 83.7 °F 65.7 °F 30.15 in SE 2.4 mph 6 mph 53.4% 0.00 in 773 W/m2
15:44 84.7 °F 65.5 °F 30.15 in SE 2.2 mph 8 mph 51.2% 0.00 in 728 W/m2
15:49 83.9 °F 65.7 °F 30.15 in SE 3.7 mph 7 mph 53% 0.00 in 163 W/m2
15:54 83.2 °F 64.7 °F 30.15 in SSE 2.5 mph 7 mph 52.2% 0.00 in 155 W/m2
15:59 82.9 °F 64.6 °F 30.15 in SSE 1.4 mph 5 mph 52.4% 0.00 in 202 W/m2
16:04 83.9 °F 65 °F 30.14 in SSE 2.4 mph 8 mph 51.6% 0.00 in 759 W/m2
16:09 84.3 °F 65 °F 30.14 in SSE 2.5 mph 5 mph 51% 0.00 in 759 W/m2
16:14 84.6 °F 65.4 °F 30.14 in SSE 4.8 mph 10 mph 51% 0.00 in 724 W/m2
16:19 84 °F 65.3 °F 30.14 in SSE 1.2 mph 7 mph 52% 0.00 in 642 W/m2
16:24 84.5 °F 65.6 °F 30.14 in SSE 0.6 mph 5 mph 51.6% 0.00 in 142 W/m2
16:29 84.8 °F 65.6 °F 30.14 in Calm   3 mph 51% 0.00 in 142 W/m2
16:34 84.7 °F 64.7 °F 30.14 in Calm   3 mph 49.8% 0.00 in 171 W/m2
16:39 84.9 °F 64.9 °F 30.14 in Calm     49.8% 0.00 in 649 W/m2
16:44 85.6 °F 64.5 °F 30.14 in Calm   4 mph 48% 0.00 in 666 W/m2
16:49 85 °F 64.3 °F 30.14 in SSE 3.7 mph 8 mph 48.6% 0.00 in 622 W/m2
16:54 84.3 °F 64.8 °F 30.14 in SSE 4.6 mph 8 mph 50.4% 0.00 in 598 W/m2
16:59 83.9 °F 64.8 °F 30.13 in SSE 2.6 mph 7 mph 51.2% 0.00 in 552 W/m2
17:04 84 °F 64.9 °F 30.13 in SSE 2.8 mph 7 mph 51.4% 0.00 in 165 W/m2
17:09 84.2 °F 65.4 °F 30.13 in SSE 3.1 mph 8 mph 51.8% 0.00 in 547 W/m2
17:14 84.7 °F 65.7 °F 30.13 in SSE 1.7 mph 5 mph 51.4% 0.00 in 148 W/m2
17:19 85 °F 65.2 °F 30.13 in SSE 0.4 mph 5 mph 50.2% 0.00 in 179 W/m2
17:24 85.4 °F 65.5 °F 30.13 in SSE 1.3 mph 4 mph 50.2% 0.00 in 492 W/m2
17:29 85.6 °F 65.8 °F 30.13 in SSE 1.2 mph 3 mph 50.2% 0.00 in 327 W/m2
17:34 85.6 °F 65.7 °F 30.13 in SSE 2.1 mph 7 mph 50% 0.00 in 330 W/m2
17:39 85.6 °F 65.5 °F 30.13 in SE 3.9 mph 9 mph 49.8% 0.00 in 353 W/m2
17:44 85.4 °F 65.9 °F 30.12 in SE 2 mph 6 mph 51% 0.00 in 265 W/m2
17:48 85.5 °F 66 °F 30.12 in SE 2.2 mph 4 mph 51% 0.00 in 334 W/m2
17:54 85.6 °F 65.9 °F 30.12 in SE 3.3 mph 8 mph 50.4% 0.00 in 492 W/m2
17:59 84.7 °F 65.3 °F 30.12 in SSE 2.4 mph 8 mph 50.8% 0.00 in 468 W/m2
18:04 84.2 °F 65 °F 30.12 in SSE 4.1 mph 8 mph 51.2% 0.00 in 459 W/m2
18:09 83.8 °F 65.1 °F 30.12 in SSE 2.9 mph 8 mph 52% 0.00 in 436 W/m2
18:14 83.5 °F 64.8 °F 30.12 in SSE 4.1 mph 8 mph 52% 0.00 in 406 W/m2
18:19 83 °F 65 °F 30.12 in SSE 2.5 mph 9 mph 53% 0.00 in 404 W/m2
18:24 83.6 °F 65.4 °F 30.11 in SSE 2.9 mph 7 mph 53% 0.00 in 274 W/m2
18:29 83.4 °F 64.8 °F 30.11 in SSE 4.9 mph 7 mph 52.2% 0.00 in 327 W/m2
18:34 82.8 °F 64.8 °F 30.11 in SSE 2.8 mph 7 mph 53% 0.00 in 318 W/m2
18:39 82.9 °F 64.7 °F 30.11 in SSE 3.7 mph 7 mph 52.5% 0.00 in 306 W/m2
18:44 83 °F 65 °F 30.11 in SSE 4.7 mph 9 mph 53% 0.00 in 299 W/m2
18:49 82.9 °F 64.9 °F 30.11 in SSE 5 mph 9 mph 53% 0.00 in 287 W/m2
18:54 82.8 °F 64.8 °F 30.11 in South 3.2 mph 9 mph 53% 0.00 in 274 W/m2
18:59 82.9 °F 65 °F 30.11 in SSE 3.8 mph 7 mph 53.2% 0.00 in 251 W/m2
19:04 82.9 °F 65.1 °F 30.11 in SSE 3.3 mph 8 mph 53.4% 0.00 in 244 W/m2
19:09 82.9 °F 65.7 °F 30.11 in SSE 6 mph 9 mph 54.6% 0.00 in 232 W/m2
19:14 82.1 °F 66.2 °F 30.11 in SSE 5.7 mph 10 mph 57% 0.00 in 230 W/m2
19:19 81.7 °F 66.8 °F 30.11 in SSE 3.2 mph 6 mph 59% 0.00 in 214 W/m2
19:24 81.8 °F 67.4 °F 30.11 in SSE 4.4 mph 8 mph 60% 0.00 in 197 W/m2
19:29 81.3 °F 67.4 °F 30.11 in SSE 3.9 mph 6 mph 60.8% 0.00 in 188 W/m2
19:34 81.2 °F 67.1 °F 30.11 in SSE 4.5 mph 7 mph 60.5% 0.00 in 172 W/m2
19:39 81 °F 67.2 °F 30.11 in SSE 5.3 mph 9 mph 61.2% 0.00 in 163 W/m2
19:44 81 °F 67.6 °F 30.11 in SSE 3.4 mph 8 mph 62% 0.00 in 144 W/m2
19:49 80.9 °F 67.6 °F 30.12 in SSW 2.9 mph 9 mph 62% 0.00 in 130 W/m2
19:54 80.6 °F 67.3 °F 30.12 in SSW 5 mph 9 mph 62% 0.00 in 111 W/m2
19:59 80.4 °F 67.5 °F 30.12 in SSW 4.1 mph 9 mph 63% 0.00 in 97 W/m2
20:04 80.2 °F 67.3 °F 30.12 in SSW 4.1 mph 10 mph 63% 0.00 in 83 W/m2
20:09 79.7 °F 67 °F 30.12 in South 4.4 mph 11 mph 63.4% 0.00 in 72 W/m2
20:14 79.4 °F 67 °F 30.12 in South 3.8 mph 8 mph 64% 0.00 in 62 W/m2
20:19 79.3 °F 66.8 °F 30.12 in SSW 1.9 mph 5 mph 64% 0.00 in 49 W/m2
20:24 79 °F 67.1 °F 30.12 in SSW 3.4 mph 8 mph 65% 0.00 in 42 W/m2
20:29 78.6 °F 66.7 °F 30.12 in SSW 3.3 mph 8 mph 65% 0.00 in 32 W/m2
20:34 78.6 °F 67.1 °F 30.12 in SSW 0.2 mph 4 mph 66% 0.00 in 28 W/m2
20:39 78.8 °F 67.3 °F 30.12 in SSW 0.8 mph 3 mph 66% 0.00 in 23 W/m2
20:44 78.5 °F 66.9 °F 30.12 in SSW 2.1 mph 5 mph 66% 0.00 in 19 W/m2
20:49 78.2 °F 67.2 °F 30.12 in SSW 2.6 mph 6 mph 67% 0.00 in 18 W/m2
20:53 77.7 °F 66.9 °F 30.12 in SW 3.7 mph 9 mph 67.8% 0.00 in 14 W/m2
20:59 77.4 °F 66.7 °F 30.12 in SW 1.2 mph 6 mph 68% 0.00 in 11 W/m2
21:04 77.2 °F 66.7 °F 30.12 in SW 1.2 mph 4 mph 68% 0.00 in 9 W/m2
21:09 77 °F 66.7 °F 30.12 in SW 0.6 mph 4 mph 68.2% 0.00 in 5 W/m2
21:14 76.7 °F 66.6 °F 30.13 in SW 2 mph 4 mph 69% 0.00 in 0 W/m2
21:19 76.5 °F 66.4 °F 30.13 in SW 0.8 mph 3 mph 69% 0.00 in 0 W/m2
21:24 76.5 °F 66.4 °F 30.12 in Calm     69.2% 0.00 in 0 W/m2
21:29 76.3 °F 66.2 °F 30.12 in Calm     69% 0.00 in 0 W/m2
21:34 75.9 °F 66.2 °F 30.13 in Calm     70% 0.00 in 0 W/m2
21:39 75.6 °F 66 °F 30.13 in Calm   3 mph 70% 0.00 in 0 W/m2
21:44 75.4 °F 65.8 °F 30.13 in Calm     70% 0.00 in 0 W/m2
21:49 75.3 °F 65.8 °F 30.13 in SW 0.2 mph 2 mph 70.2% 0.00 in 0 W/m2
21:54 75.2 °F 65.7 °F 30.13 in Calm   2 mph 70% 0.00 in 0 W/m2
21:59 75 °F 65.6 °F 30.13 in Calm     70.2% 0.00 in 0 W/m2
22:04 75 °F 65.7 °F 30.13 in SW 1 mph 4 mph 70.6% 0.00 in 0 W/m2
22:09 74.8 °F 65.4 °F 30.13 in SW 0.8 mph 2 mph 70.2% 0.00 in 0 W/m2
22:14 74.8 °F 65.4 °F 30.13 in SW 0.8 mph 3 mph 70.2% 0.00 in 0 W/m2
22:19 74.8 °F 65.4 °F 30.13 in Calm   2 mph 70.4% 0.00 in 0 W/m2
22:24 74.4 °F 65.2 °F 30.13 in Calm     71% 0.00 in 0 W/m2
22:29 73.9 °F 64.8 °F 30.14 in SW 1.7 mph 4 mph 71.2% 0.00 in 0 W/m2
22:34 73.5 °F 64.8 °F 30.14 in SW 2 mph 5 mph 72% 0.00 in 0 W/m2
22:39 73.2 °F 64.6 °F 30.14 in SW 1.5 mph 4 mph 72.2% 0.00 in 0 W/m2
22:44 73 °F 64.8 °F 30.14 in SW 0.4 mph 3 mph 73% 0.00 in 0 W/m2
22:49 72.9 °F 64.6 °F 30.14 in Calm     73% 0.00 in 0 W/m2
22:54 72.7 °F 64.6 °F 30.14 in Calm   2 mph 73.4% 0.00 in 0 W/m2
22:59 72.7 °F 64.8 °F 30.14 in Calm     74% 0.00 in 0 W/m2
23:04 72.5 °F 64.6 °F 30.14 in Calm     74% 0.00 in 0 W/m2
23:09 72.2 °F 64.3 °F 30.14 in Calm     74% 0.00 in 0 W/m2
23:14 72.1 °F 64.2 °F 30.14 in Calm     74% 0.00 in 0 W/m2
23:19 72.1 °F 64.5 °F 30.14 in Calm     75% 0.00 in 0 W/m2
23:24 72 °F 64.4 °F 30.14 in Calm     75% 0.00 in 0 W/m2
23:29 71.7 °F 64.2 °F 30.14 in Calm     75.2% 0.00 in 0 W/m2
23:34 71.3 °F 64 °F 30.14 in Calm     75.2% 0.00 in 0 W/m2
23:39 71.1 °F 63.8 °F 30.14 in Calm     75% 0.00 in 0 W/m2
23:44 71.1 °F 64 °F 30.14 in Calm     76% 0.00 in 0 W/m2
23:49 71.1 °F 64 °F 30.14 in Calm     76% 0.00 in 0 W/m2
23:54 71.1 °F 64 °F 30.14 in Calm     76% 0.00 in 0 W/m2
23:59 70.9 °F 63.9 °F 30.14 in Calm     76% 0.00 in 0 W/m2
Bath Spa Weather
Compliments of Weather Underground - 2 mb